Airfield :
LOGIN :

Register | Disclaimer

   EN    FR    IT 

 










Legend :    VFR   Marginal VFR   IFR   Intensive IFR   Very Intensive IFR
Visi :
Ceiling :
>= 8 km
>= 3000ft
5 to 8 km
1000 to 3000 ft
1500m to 5 km
500 to 1000 ft
800 to 1500m
200 to 500 ft
< 800m
< 200 ft
Symbols :   Thunderstorms  Fog  Heavy snow  Heavy precipitations  Wind > 20 kt
SIGMETs :     Misc.  Thunderstorms  Icing  Turbulence  Mountain Waves  Volcanic Ashes






- Airport Elevation : 466 ft


LHPA - Pápa

CURRENT METAR :
  • 080845Z 02002KT 9999 BKN043 03/03 Q1013 TEMPO -RA RMK BLU

EXPIRED METARs :
  • 080815Z 00000KT 9999 BKN047 03/03 Q1013 NOSIG RMK BLU
  • 080745Z 00000KT CAVOK 02/02 Q1013 TEMPO -RA RMK BLU
  • 080715Z 00000KT 8000 NSC 02/02 Q1013 NOSIG RMK BLU
  • 080645Z 00000KT 5000 BR BKN050 BKN083 02/02 Q1013 BECMG 6000 NSW RMK WHT
  • 080631Z 00000KT 5000 BR BKN050 BKN083 02/02 Q1013 RMK WHT

TAF TAF LHPA
Valid from the 08 at 06:00 until the 09 at 06:00 UTC


080515Z 0806/0906 VRB02KT 5000 BR FEW003 SCT050 BKN080
PROB30
TEMPO 0806/0807 1500 BR MIFG BKN002
BECMG 0806/0809 15004KT 9999 NSW SCT015 BKN030
PROB30
TEMPO 0807/0819 6000 -RA -SNRA SCT007 BKN015
BECMG 0816/0819 6000 BKN015
TEMPO 0818/0906 5000 BR BKN010
PROB40
TEMPO 0902/0906 0500 FZFG BKN002
TEMPO 0903/0906 1500 RA BR BKN007



MET'MAP, your aeronautical weather chart ! - Copyright ORBIFLY December 2007 - Disclaimer

ORBIFLY MET'MAP TEAM :

Programming & Development : Alexandra Zaïnal
Original concept : Baudouin d'Aumeries
Technical & hardware support : Manuel Goepfert
Assistance : Marc-Olivier Méhu




SOURCES & CREDITS :

   NOAA